createdAt,value
2023-03-12T00:01:17.968Z,99435.23
2023-03-12T00:03:47.557Z,99436.92
2023-03-12T00:06:16.605Z,99438.61
2023-03-12T00:08:45.024Z,99432.27
2023-03-12T00:11:16.067Z,99430.37
2023-03-12T00:13:44.746Z,99433.25
2023-03-12T00:16:15.684Z,99432.38
2023-03-12T00:18:44.489Z,99428.73
2023-03-12T00:21:12.635Z,99430.94
2023-03-12T00:23:41.227Z,99429.21
2023-03-12T00:26:12.931Z,99432.61
2023-03-12T00:28:41.182Z,99425.23
2023-03-12T00:31:19.920Z,99432.42
2023-03-12T00:33:51.363Z,99425.74
2023-03-12T00:36:24.970Z,99423.67
2023-03-12T00:38:54.755Z,99423.98
2023-03-12T00:41:24.429Z,99438.69
2023-03-12T00:43:53.047Z,99437.99
2023-03-12T00:46:22.214Z,99443.81
2023-03-12T00:48:50.818Z,99434.39
2023-03-12T00:51:19.206Z,99459.53
2023-03-12T00:53:47.414Z,99452.84
2023-03-12T00:56:15.770Z,99440.52
2023-03-12T00:58:43.922Z,99440.85
2023-03-12T01:01:12.568Z,99446.84
2023-03-12T01:03:41.093Z,99456.77
2023-03-12T01:06:09.569Z,99473.87
2023-03-12T01:08:38.029Z,99473.74
2023-03-12T01:11:06.124Z,99476.16
2023-03-12T01:13:34.363Z,99477.02
2023-03-12T01:16:02.802Z,99485.63
2023-03-12T01:18:30.904Z,99468.04
2023-03-12T01:20:59.504Z,99462.30
2023-03-12T01:23:28.276Z,99451.71
2023-03-12T01:25:56.574Z,99453.12
2023-03-12T01:28:25.931Z,99457.40
2023-03-12T01:30:54.098Z,99458.27
2023-03-12T01:33:23.057Z,99460.67
2023-03-12T01:35:51.624Z,99462.05
2023-03-12T01:38:20.958Z,99468.39
2023-03-12T01:40:49.049Z,99481.05
2023-03-12T01:43:35.523Z,99461.75
2023-03-12T01:46:16.263Z,99466.40
2023-03-12T01:48:48.488Z,99471.88
2023-03-12T01:51:19.133Z,99480.27
2023-03-12T01:53:51.506Z,99472.40
2023-03-12T01:56:21.745Z,99484.71
2023-03-12T01:58:55.038Z,99473.10
2023-03-12T02:01:24.170Z,99470.88
2023-03-12T02:03:55.849Z,99474.98
2023-03-12T02:06:28.711Z,99473.44
2023-03-12T02:08:59.821Z,99472.92
2023-03-12T02:11:27.972Z,99464.38
2023-03-12T02:13:56.746Z,99476.00
2023-03-12T02:16:26.160Z,99466.09
2023-03-12T02:18:57.096Z,99457.20
2023-03-12T02:21:30.997Z,99464.73
2023-03-12T02:24:14.978Z,99466.08
2023-03-12T02:26:43.229Z,99466.09
2023-03-12T02:29:12.602Z,99473.95
2023-03-12T02:31:45.587Z,99479.59
2023-03-12T02:34:14.612Z,99472.59
2023-03-12T02:36:42.777Z,99477.04
2023-03-12T02:39:12.727Z,99477.72
2023-03-12T02:41:53.955Z,99479.94
2023-03-12T02:44:25.672Z,99475.66
2023-03-12T02:46:56.079Z,99483.87
2023-03-12T02:49:28.464Z,99486.09
2023-03-12T02:51:57.278Z,99490.52
2023-03-12T02:54:25.718Z,99493.27
2023-03-12T02:56:54.273Z,99497.55
2023-03-12T02:59:26.679Z,99497.54
2023-03-12T03:01:58.472Z,99497.02
2023-03-12T03:04:29.146Z,99488.99
2023-03-12T03:06:57.906Z,99487.29
2023-03-12T03:09:26.123Z,99502.16
2023-03-12T03:11:54.292Z,99507.80
2023-03-12T03:14:23.502Z,99506.11
2023-03-12T03:16:51.814Z,99516.89
2023-03-12T03:19:21.649Z,99515.52
2023-03-12T03:21:49.715Z,99518.09
2023-03-12T03:24:18.351Z,99514.67
2023-03-12T03:26:46.500Z,99521.15
2023-03-12T03:29:14.970Z,99518.42
2023-03-12T03:31:43.213Z,99523.71
2023-03-12T03:34:11.302Z,99534.48
2023-03-12T03:36:39.371Z,99535.34
2023-03-12T03:39:11.859Z,99542.02
2023-03-12T03:41:40.059Z,99549.87
2023-03-12T03:44:08.710Z,99553.30
2023-03-12T03:46:37.568Z,99538.80
2023-03-12T03:49:07.700Z,99541.89
2023-03-12T03:51:36.693Z,99542.22
2023-03-12T03:54:10.834Z,99545.48
2023-03-12T03:56:41.181Z,99545.47
2023-03-12T03:59:10.160Z,99555.71
2023-03-12T04:01:39.755Z,99555.88
2023-03-12T04:04:08.186Z,99575.70
2023-03-12T04:06:36.411Z,99605.77
2023-03-12T04:09:04.959Z,99584.92
2023-03-12T04:11:33.683Z,99581.02
2023-03-12T04:14:01.992Z,99568.20
2023-03-12T04:16:32.375Z,99569.73
2023-03-12T04:19:00.521Z,99575.38
2023-03-12T04:21:28.737Z,99569.40
2023-03-12T04:23:57.143Z,99571.11
2023-03-12T04:26:28.960Z,99565.63
2023-03-12T04:28:57.654Z,99568.36
2023-03-12T04:31:25.835Z,99569.21
2023-03-12T04:33:54.032Z,99565.96
2023-03-12T04:36:24.021Z,99570.93
2023-03-12T04:38:52.681Z,99567.16
2023-03-12T04:41:24.874Z,99567.68
2023-03-12T04:43:57.389Z,99578.45
2023-03-12T04:46:26.070Z,99568.02
2023-03-12T04:48:54.235Z,99564.45
2023-03-12T04:51:22.396Z,99560.18
2023-03-12T04:53:51.635Z,99573.83
2023-03-12T04:56:19.795Z,99572.97
2023-03-12T04:58:48.408Z,99584.08
2023-03-12T05:01:21.983Z,99595.86
2023-03-12T05:03:50.422Z,99607.85
2023-03-12T05:06:19.055Z,99615.88
2023-03-12T05:08:48.688Z,99627.68
2023-03-12T05:11:18.124Z,99613.66
2023-03-12T05:13:46.285Z,99603.94
2023-03-12T05:16:16.477Z,99605.98
2023-03-12T05:18:45.109Z,99617.90
2023-03-12T05:21:19.612Z,99635.83
2023-03-12T05:23:49.076Z,99631.03
2023-03-12T05:26:21.366Z,99638.88
2023-03-12T05:28:50.272Z,99626.43
2023-03-12T05:31:19.105Z,99623.38
2023-03-12T05:33:47.741Z,99616.21
2023-03-12T05:36:16.593Z,99630.38
2023-03-12T05:38:46.618Z,99627.49
2023-03-12T05:41:22.029Z,99634.83
2023-03-12T05:43:50.289Z,99635.70
2023-03-12T05:46:18.860Z,99648.67
2023-03-12T05:48:47.863Z,99637.90
2023-03-12T05:51:16.777Z,99638.09
2023-03-12T05:53:45.188Z,99642.19
2023-03-12T05:56:16.410Z,99652.27
2023-03-12T05:58:45.126Z,99653.61
2023-03-12T06:01:25.744Z,99651.91
2023-03-12T06:03:55.630Z,99652.44
2023-03-12T06:06:25.864Z,99639.64
2023-03-12T06:08:54.893Z,99651.23
2023-03-12T06:11:23.033Z,99660.13
2023-03-12T06:13:51.328Z,99669.52
2023-03-12T06:16:23.178Z,99700.27
2023-03-12T06:18:56.728Z,99677.55
2023-03-12T06:21:27.418Z,99695.81
2023-03-12T06:23:56.900Z,99749.26
2023-03-12T06:26:31.908Z,99757.60
2023-03-12T06:28:59.973Z,99754.65
2023-03-12T06:31:28.490Z,99742.48
2023-03-12T06:33:56.654Z,99759.84
2023-03-12T06:36:25.665Z,99757.55
2023-03-12T06:38:56.943Z,99760.07
2023-03-12T06:41:25.695Z,99741.98
2023-03-12T06:43:54.015Z,99760.77
2023-03-12T06:46:22.296Z,99758.89
2023-03-12T06:48:50.581Z,99751.05
2023-03-12T06:51:18.974Z,99759.94
2023-03-12T06:53:47.153Z,99755.36
2023-03-12T06:56:16.010Z,99771.42
2023-03-12T06:58:44.504Z,99758.98
2023-03-12T07:01:14.009Z,99759.86
2023-03-12T07:03:42.650Z,99746.73
2023-03-12T07:06:16.330Z,99748.28
2023-03-12T07:08:45.438Z,99763.48
2023-03-12T07:11:13.986Z,99753.27
2023-03-12T07:13:42.356Z,99768.14
2023-03-12T07:16:11.177Z,99787.30
2023-03-12T07:18:39.679Z,99795.66
2023-03-12T07:21:07.829Z,99812.58
2023-03-12T07:23:36.484Z,99835.79
2023-03-12T07:26:06.331Z,99823.64
2023-03-12T07:28:34.781Z,99821.20
2023-03-12T07:31:04.617Z,99821.14
2023-03-12T07:33:33.330Z,99824.18
2023-03-12T07:36:01.776Z,99833.05
2023-03-12T07:38:31.895Z,99822.61
2023-03-12T07:41:00.829Z,99829.09
2023-03-12T07:43:29.090Z,99833.36
2023-03-12T07:45:57.511Z,99822.61
2023-03-12T07:48:26.244Z,99823.27
2023-03-12T07:50:54.773Z,99829.60
2023-03-12T07:53:23.626Z,99828.76
2023-03-12T07:55:52.474Z,99837.14
2023-03-12T07:58:21.017Z,99830.00
2023-03-12T08:00:49.481Z,99827.63
2023-03-12T08:03:18.201Z,99836.18
2023-03-12T08:05:56.722Z,99835.19
2023-03-12T08:08:26.396Z,99842.38
2023-03-12T08:10:55.429Z,99838.65
2023-03-12T08:13:24.496Z,99840.04
2023-03-12T08:15:54.094Z,99836.83
2023-03-12T08:18:24.714Z,99841.99
2023-03-12T08:20:54.806Z,99849.35
2023-03-12T08:23:24.247Z,99834.86
2023-03-12T08:25:53.160Z,99838.81
2023-03-12T08:28:23.457Z,99847.71
2023-03-12T08:30:54.893Z,99852.00
2023-03-12T08:33:23.364Z,99857.48
2023-03-12T08:35:52.580Z,99863.98
2023-03-12T08:38:21.508Z,99867.92
2023-03-12T08:40:57.431Z,99878.33
2023-03-12T08:43:29.112Z,99875.59
2023-03-12T08:46:00.417Z,99887.39
2023-03-12T08:48:31.613Z,99895.95
2023-03-12T08:51:04.327Z,99889.98
2023-03-12T08:53:34.309Z,99885.20
2023-03-12T08:56:03.720Z,99908.28
2023-03-12T08:58:32.294Z,99912.91
2023-03-12T09:01:00.753Z,99915.31
2023-03-12T09:03:29.122Z,99909.52
2023-03-12T09:06:14.876Z,99901.65
2023-03-12T09:08:44.235Z,99909.70
2023-03-12T09:11:14.744Z,99906.27
2023-03-12T09:14:03.889Z,99909.19
2023-03-12T09:16:31.295Z,99934.84
2023-03-12T09:19:00.298Z,99932.63
2023-03-12T09:21:28.934Z,99953.50
2023-03-12T09:23:57.797Z,99964.44
2023-03-12T09:26:25.941Z,99957.94
2023-03-12T09:28:54.060Z,99957.44
2023-03-12T09:31:22.414Z,99944.25
2023-03-12T09:33:51.833Z,99945.98
2023-03-12T09:36:20.010Z,99974.55
2023-03-12T09:38:48.467Z,99966.67
2023-03-12T09:41:23.656Z,99998.17
2023-03-12T09:44:08.030Z,99961.52
2023-03-12T09:46:36.111Z,99977.80
2023-03-12T09:49:23.120Z,99961.67
2023-03-12T09:51:55.649Z,99966.64
2023-03-12T09:54:41.032Z,99960.63
2023-03-12T09:57:17.938Z,99951.38
2023-03-12T09:59:46.211Z,99988.20
2023-03-12T10:02:53.055Z,99993.00
2023-03-12T10:05:55.264Z,99974.31
2023-03-12T10:08:42.138Z,100002.05
2023-03-12T10:11:36.642Z,99984.40
2023-03-12T10:14:24.427Z,99991.27
2023-03-12T10:17:18.789Z,100006.84
2023-03-12T10:20:09.938Z,100051.38
2023-03-12T10:23:05.398Z,100028.91
2023-03-12T10:25:37.011Z,100021.71
2023-03-12T10:28:14.601Z,100058.71
2023-03-12T10:30:50.419Z,100076.38
2023-03-12T10:33:20.059Z,100061.98
2023-03-12T10:35:49.214Z,100057.85
2023-03-12T10:38:25.279Z,100067.96
2023-03-12T10:40:53.414Z,100097.59
2023-03-12T10:43:21.694Z,100073.41
2023-03-12T10:46:07.302Z,100049.75
2023-03-12T10:48:35.624Z,100067.39
2023-03-12T10:51:13.921Z,100038.06
2023-03-12T10:53:45.140Z,100045.30
2023-03-12T10:56:20.749Z,100089.89
2023-03-12T10:58:51.269Z,100054.25
2023-03-12T11:01:31.920Z,100037.46
2023-03-12T11:04:26.175Z,100065.59
2023-03-12T11:07:21.307Z,100069.52
2023-03-12T11:10:26.955Z,100069.55
2023-03-12T11:13:20.127Z,100053.94
2023-03-12T11:15:48.840Z,100071.77
2023-03-12T11:18:24.100Z,100058.42
2023-03-12T11:20:56.640Z,100076.08
2023-03-12T11:23:30.511Z,100071.61
2023-03-12T11:26:02.863Z,100090.98
2023-03-12T11:28:40.783Z,100083.95
2023-03-12T11:31:15.807Z,100073.31
2023-03-12T11:33:44.112Z,100102.27
2023-03-12T11:36:30.739Z,100087.71
2023-03-12T11:39:22.111Z,100097.48
2023-03-12T11:42:21.454Z,100075.86
2023-03-12T11:44:55.648Z,100092.98
2023-03-12T11:47:32.897Z,100096.23
2023-03-12T11:50:13.327Z,100097.39
2023-03-12T11:52:56.622Z,100089.82
2023-03-12T11:56:00.471Z,100086.87
2023-03-12T11:58:59.970Z,100091.65
2023-03-12T12:01:56.705Z,100150.63
2023-03-12T12:04:45.702Z,100129.98
2023-03-12T12:07:19.457Z,100124.77
2023-03-12T12:10:03.077Z,100141.56
2023-03-12T12:12:50.261Z,100127.08
2023-03-12T12:15:37.543Z,100119.45
2023-03-12T12:18:43.586Z,100110.95
2023-03-12T12:21:30.365Z,100137.70
2023-03-12T12:24:22.980Z,100145.02
2023-03-12T12:27:17.355Z,100145.80
2023-03-12T12:29:58.511Z,100144.92
2023-03-12T12:33:02.441Z,100155.11
2023-03-12T12:35:38.143Z,100155.22
2023-03-12T12:38:30.566Z,100141.34
2023-03-12T12:41:16.995Z,100144.22
2023-03-12T12:43:49.912Z,100156.18
2023-03-12T12:46:26.548Z,100156.80
2023-03-12T12:49:06.675Z,100136.16
2023-03-12T12:51:40.502Z,100123.67
2023-03-12T12:54:28.982Z,100123.35
2023-03-12T12:57:24.284Z,100160.15
2023-03-12T13:00:44.385Z,100148.45
2023-03-12T13:03:17.768Z,100134.73
2023-03-12T13:05:56.282Z,100160.45
2023-03-12T13:08:50.785Z,100161.13
2023-03-12T13:11:32.054Z,100151.98
2023-03-12T13:14:04.033Z,100159.73
2023-03-12T13:16:35.728Z,100163.67
2023-03-12T13:19:24.191Z,100163.02
2023-03-12T13:22:04.515Z,100174.36
2023-03-12T13:24:56.024Z,100162.80
2023-03-12T13:27:30.120Z,100168.86
2023-03-12T13:29:58.706Z,100145.33
2023-03-12T13:32:58.127Z,100182.17
2023-03-12T13:35:26.590Z,100172.70
2023-03-12T13:37:54.863Z,100183.44
2023-03-12T13:40:29.421Z,100174.92
2023-03-12T13:43:09.974Z,100192.73
2023-03-12T13:45:47.922Z,100205.87
2023-03-12T13:48:20.512Z,100202.15
2023-03-12T13:50:57.293Z,100184.00
2023-03-12T13:53:36.095Z,100192.38
2023-03-12T13:56:18.615Z,100193.21
2023-03-12T13:59:03.872Z,100211.96
2023-03-12T14:01:41.658Z,100188.19
2023-03-12T14:04:20.251Z,100202.16
2023-03-12T14:07:05.395Z,100189.73
2023-03-12T14:09:45.557Z,100205.28
2023-03-12T14:12:38.964Z,100199.96
2023-03-12T14:15:23.603Z,100196.24
2023-03-12T14:17:58.936Z,100210.14
2023-03-12T14:20:27.793Z,100218.39
2023-03-12T14:23:07.870Z,100208.23
2023-03-12T14:25:45.581Z,100211.15
2023-03-12T14:28:19.123Z,100227.95
2023-03-12T14:31:07.378Z,100213.41
2023-03-12T14:33:47.556Z,100224.07
2023-03-12T14:36:20.536Z,100221.34
2023-03-12T14:38:49.778Z,100225.48
2023-03-12T14:41:31.280Z,100226.30
2023-03-12T14:44:20.398Z,100214.30
2023-03-12T14:47:03.205Z,100211.77
2023-03-12T14:49:32.551Z,100221.63
2023-03-12T14:52:00.773Z,100212.40
2023-03-12T14:54:28.942Z,100210.75
2023-03-12T14:56:57.352Z,100218.20
2023-03-12T14:59:31.476Z,100217.56
2023-03-12T15:02:04.372Z,100221.91
2023-03-12T15:04:34.506Z,100213.48
2023-03-12T15:07:06.625Z,100206.41
2023-03-12T15:09:36.500Z,100207.40
2023-03-12T15:12:08.205Z,100206.61
2023-03-12T15:14:41.699Z,100210.55
2023-03-12T15:17:17.424Z,100203.02
2023-03-12T15:19:46.942Z,100194.92
2023-03-12T15:22:18.267Z,100194.63
2023-03-12T15:24:47.341Z,100194.69
2023-03-12T15:27:25.204Z,100199.86
2023-03-12T15:29:53.214Z,100195.45
2023-03-12T15:32:25.152Z,100192.25
2023-03-12T15:34:56.562Z,100188.67
2023-03-12T15:37:38.705Z,100182.05
2023-03-12T15:40:21.444Z,100188.70
2023-03-12T15:42:50.563Z,100195.45
2023-03-12T15:45:23.234Z,100197.73
2023-03-12T15:47:53.795Z,100202.05
2023-03-12T15:50:26.986Z,100206.89
2023-03-12T15:53:04.297Z,100209.84
2023-03-12T15:55:35.498Z,100211.56
2023-03-12T15:58:24.025Z,100212.94
2023-03-12T16:00:53.031Z,100213.25
2023-03-12T16:03:22.371Z,100217.86
2023-03-12T16:05:51.251Z,100218.87
2023-03-12T16:08:21.105Z,100223.16
2023-03-12T16:10:50.371Z,100221.09
2023-03-12T16:13:26.642Z,100222.80
2023-03-12T16:15:55.118Z,100226.08
2023-03-12T16:18:23.919Z,100229.02
2023-03-12T16:20:53.292Z,100233.85
2023-03-12T16:23:21.487Z,100229.05
2023-03-12T16:25:52.995Z,100232.54
2023-03-12T16:28:22.563Z,100238.26
2023-03-12T16:30:51.242Z,100245.19
2023-03-12T16:33:22.146Z,100245.60
2023-03-12T16:35:51.307Z,100244.95
2023-03-12T16:38:19.395Z,100240.17
2023-03-12T16:40:49.808Z,100239.18
2023-03-12T16:43:21.469Z,100242.13
2023-03-12T16:45:52.193Z,100239.55
2023-03-12T16:48:24.202Z,100238.52
2023-03-12T16:50:54.867Z,100240.24
2023-03-12T16:53:23.457Z,100237.33
2023-03-12T16:56:02.046Z,100231.16
2023-03-12T16:58:30.358Z,100242.50
2023-03-12T17:00:58.997Z,100235.65
2023-03-12T17:03:37.365Z,100239.25
2023-03-12T17:06:08.366Z,100243.20
2023-03-12T17:08:36.698Z,100250.93
2023-03-12T17:11:15.386Z,100259.88
2023-03-12T17:13:45.802Z,100260.55
2023-03-12T17:16:14.263Z,100262.45
2023-03-12T17:18:42.619Z,100269.84
2023-03-12T17:21:13.634Z,100279.96
2023-03-12T17:23:42.568Z,100287.35
2023-03-12T17:26:10.695Z,100287.34
2023-03-12T17:28:39.652Z,100286.14
2023-03-12T17:31:08.297Z,100283.91
2023-03-12T17:33:38.350Z,100283.23
2023-03-12T17:36:09.316Z,100286.33
2023-03-12T17:38:38.031Z,100285.14
2023-03-12T17:41:23.377Z,100284.63
2023-03-12T17:43:55.278Z,100282.05
2023-03-12T17:46:23.614Z,100277.77
2023-03-12T17:48:52.525Z,100276.73
2023-03-12T17:51:21.318Z,100276.55
2023-03-12T17:53:50.126Z,100275.70
2023-03-12T17:56:18.346Z,100280.01
2023-03-12T17:58:46.986Z,100283.44
2023-03-12T18:01:16.233Z,100280.85
2023-03-12T18:03:44.575Z,100284.48
2023-03-12T18:06:12.955Z,100287.39
2023-03-12T18:08:41.597Z,100288.41
2023-03-12T18:11:09.627Z,100295.62
2023-03-12T18:13:39.856Z,100297.17
2023-03-12T18:16:09.192Z,100302.83
2023-03-12T18:18:37.528Z,100304.36
2023-03-12T18:21:06.215Z,100304.52
2023-03-12T18:23:34.587Z,100308.13
2023-03-12T18:26:03.749Z,100313.61
2023-03-12T18:28:31.855Z,100310.17
2023-03-12T18:31:00.164Z,100312.39
2023-03-12T18:33:28.451Z,100310.52
2023-03-12T18:35:56.923Z,100306.21
2023-03-12T18:38:25.355Z,100308.43
2023-03-12T18:41:02.670Z,100305.35
2023-03-12T18:43:32.062Z,100306.20
2023-03-12T18:46:00.475Z,100303.96
2023-03-12T18:48:28.672Z,100305.15
2023-03-12T18:50:57.315Z,100301.55
2023-03-12T18:53:25.387Z,100309.95
2023-03-12T18:55:55.478Z,100313.54
2023-03-12T18:58:26.108Z,100314.58
2023-03-12T19:00:56.117Z,100309.41
2023-03-12T19:03:25.767Z,100306.85
2023-03-12T19:06:04.854Z,100297.77
2023-03-12T19:08:34.977Z,100293.83
2023-03-12T19:11:12.296Z,100297.92
2023-03-12T19:13:41.467Z,100301.34
2023-03-12T19:16:11.473Z,100306.48
2023-03-12T19:18:39.855Z,100307.17
2023-03-12T19:21:08.538Z,100304.27
2023-03-12T19:23:36.742Z,100308.88
2023-03-12T19:26:05.422Z,100305.96
2023-03-12T19:28:34.547Z,100304.26
2023-03-12T19:31:04.558Z,100300.48
2023-03-12T19:33:33.502Z,100296.38
2023-03-12T19:36:02.182Z,100291.05
2023-03-12T19:38:30.777Z,100290.37
2023-03-12T19:40:59.052Z,100282.66
2023-03-12T19:43:27.521Z,100282.83
2023-03-12T19:45:55.875Z,100280.08
2023-03-12T19:48:25.491Z,100277.34
2023-03-12T19:50:54.887Z,100274.77
2023-03-12T19:53:24.960Z,100271.84
2023-03-12T19:55:53.089Z,100269.09
2023-03-12T19:58:21.728Z,100267.56
2023-03-12T20:00:50.005Z,100265.33
2023-03-12T20:03:18.396Z,100265.50
2023-03-12T20:05:47.144Z,100263.77
2023-03-12T20:08:15.211Z,100267.37
2023-03-12T20:10:43.674Z,100270.95
2023-03-12T20:13:13.503Z,100274.70
2023-03-12T20:15:45.222Z,100276.23
2023-03-12T20:18:14.629Z,100275.05
2023-03-12T20:20:43.215Z,100274.35
2023-03-12T20:23:11.288Z,100275.55
2023-03-12T20:25:43.686Z,100270.58
2023-03-12T20:28:11.832Z,100263.54
2023-03-12T20:30:42.960Z,100265.92
2023-03-12T20:33:11.058Z,100270.00
2023-03-12T20:35:39.736Z,100267.26
2023-03-12T20:38:08.229Z,100265.05
2023-03-12T20:40:36.354Z,100252.73
2023-03-12T20:43:05.244Z,100245.35
2023-03-12T20:45:34.332Z,100245.02
2023-03-12T20:48:02.627Z,100237.11
2023-03-12T20:50:31.246Z,100237.45
2023-03-12T20:52:59.852Z,100241.38
2023-03-12T20:55:27.974Z,100233.67
2023-03-12T20:57:56.190Z,100235.23
2023-03-12T21:00:24.357Z,100240.53
2023-03-12T21:02:52.489Z,100238.13
2023-03-12T21:05:22.749Z,100233.52
2023-03-12T21:07:54.003Z,100223.59
2023-03-12T21:10:22.084Z,100221.20
2023-03-12T21:12:50.116Z,100218.79
2023-03-12T21:15:18.348Z,100209.55
2023-03-12T21:17:46.394Z,100201.16
2023-03-12T21:20:14.753Z,100198.92
2023-03-12T21:22:43.691Z,100198.59
2023-03-12T21:25:12.744Z,100191.89
2023-03-12T21:27:50.551Z,100186.92
2023-03-12T21:30:19.607Z,100191.02
2023-03-12T21:32:47.781Z,100189.98
2023-03-12T21:35:15.980Z,100193.05
2023-03-12T21:37:44.126Z,100193.91
2023-03-12T21:40:13.164Z,100197.00
2023-03-12T21:42:41.146Z,100201.10
2023-03-12T21:45:10.133Z,100200.58
2023-03-12T21:47:39.012Z,100206.04
2023-03-12T21:50:10.073Z,100211.16
2023-03-12T21:52:43.154Z,100209.98
2023-03-12T21:55:11.614Z,100202.61
2023-03-12T21:57:39.676Z,100204.31
2023-03-12T22:00:12.963Z,100208.92
2023-03-12T22:02:42.987Z,100204.66
2023-03-12T22:05:11.685Z,100201.75
2023-03-12T22:07:40.030Z,100195.08
2023-03-12T22:10:11.946Z,100186.02
2023-03-12T22:12:40.215Z,100177.98
2023-03-12T22:15:09.347Z,100179.52
2023-03-12T22:17:37.508Z,100174.91
2023-03-12T22:20:08.057Z,100174.39
2023-03-12T22:22:36.218Z,100175.59
2023-03-12T22:25:04.596Z,100174.05
2023-03-12T22:27:32.702Z,100169.93
2023-03-12T22:30:00.969Z,100178.98
2023-03-12T22:32:29.154Z,100176.59
2023-03-12T22:34:57.240Z,100169.40
2023-03-12T22:37:25.273Z,100167.52
2023-03-12T22:39:53.361Z,100172.13
2023-03-12T22:42:21.466Z,100174.67
2023-03-12T22:44:49.549Z,100170.77
2023-03-12T22:47:17.662Z,100176.06
2023-03-12T22:49:46.828Z,100173.48
2023-03-12T22:52:14.908Z,100171.80
2023-03-12T22:54:42.957Z,100168.36
2023-03-12T22:57:11.059Z,100158.60
2023-03-12T22:59:39.120Z,100152.42
2023-03-12T23:02:07.234Z,100156.35
2023-03-12T23:04:35.824Z,100153.27
2023-03-12T23:07:13.649Z,100138.40
2023-03-12T23:09:44.023Z,100128.81
2023-03-12T23:12:12.114Z,100130.52
2023-03-12T23:14:40.237Z,100137.18
2023-03-12T23:17:09.187Z,100130.51
2023-03-12T23:19:37.470Z,100127.41
2023-03-12T23:22:06.732Z,100126.21
2023-03-12T23:24:35.237Z,100129.64
2023-03-12T23:27:04.096Z,100132.20
2023-03-12T23:29:33.732Z,100136.83
2023-03-12T23:32:02.565Z,100142.64
2023-03-12T23:34:30.761Z,100141.09
2023-03-12T23:36:59.100Z,100128.27
2023-03-12T23:39:29.919Z,100127.92
2023-03-12T23:41:58.124Z,100125.70
2023-03-12T23:44:26.216Z,100122.11
2023-03-12T23:46:54.256Z,100114.59
2023-03-12T23:49:22.332Z,100105.89
2023-03-12T23:51:50.443Z,100104.52
2023-03-12T23:54:18.749Z,100094.41
2023-03-12T23:56:46.900Z,100079.70
2023-03-12T23:59:14.953Z,100068.75
